Time,TemperatureF,DewpointF,PressureIn,WindDirection,WindDirectionDegrees,WindSpeedMPH,WindSpeedGustMPH,Humidity,HourlyPrecipIn,Conditions,Clouds,dailyrainin,SoftwareType,DateUTC
2013-03-04 06:16:00,56.5,44.1,29.66,South,180,5.8,-999.0,63,-99.99,,,0.00,Acu-Link.com,2013-03-04 12:16:00,
2013-03-04 06:31:00,55.6,43.2,29.65,SSW,202,8.9,-999.0,63,-99.99,,,0.00,Acu-Link.com,2013-03-04 12:31:00,
2013-03-04 06:46:00,56.7,44.2,29.66,SSW,202,3.7,-999.0,63,-99.99,,,0.00,Acu-Link.com,2013-03-04 12:46:00,
2013-03-04 07:02:00,57.2,44.7,29.65,SSW,202,7.8,-999.0,63,-99.99,,,0.00,Acu-Link.com,2013-03-04 13:02:00,
2013-03-04 07:17:00,57.9,45.4,29.65,SSW,202,10.9,-999.0,63,-99.99,,,0.00,Acu-Link.com,2013-03-04 13:17:00,
2013-03-04 07:32:00,57.9,45.4,29.65,SSW,202,7.8,-999.0,63,-99.99,,,0.00,Acu-Link.com,2013-03-04 13:32:00,
2013-03-04 07:47:00,58.5,45.9,29.65,SSW,202,4.7,-999.0,63,-99.99,,,0.00,Acu-Link.com,2013-03-04 13:47:00,
2013-03-04 08:02:00,59.7,45.8,29.65,SSW,202,6.3,-999.0,60,-99.99,,,0.00,Acu-Link.com,2013-03-04 14:02:00,
2013-03-04 08:18:00,60.3,45.9,29.65,SSW,202,6.8,-999.0,59,-99.99,,,0.00,Acu-Link.com,2013-03-04 14:18:00,
2013-03-04 08:33:00,62.6,46.7,29.65,SSW,202,7.8,-999.0,56,-99.99,,,0.00,Acu-Link.com,2013-03-04 14:33:00,
2013-03-04 08:48:00,64.0,46.5,29.65,SSW,202,12.5,-999.0,53,-99.99,,,0.00,Acu-Link.com,2013-03-04 14:48:00,
2013-03-04 09:03:00,65.5,45.8,29.65,SSW,202,10.9,-999.0,49,-99.99,,,0.00,Acu-Link.com,2013-03-04 15:03:00,
2013-03-04 09:18:00,67.3,45.8,29.65,SW,225,13.5,-999.0,46,-99.99,,,0.00,Acu-Link.com,2013-03-04 15:18:00,
2013-03-04 09:33:00,69.4,45.9,29.65,WSW,247,11.4,-999.0,43,-99.99,,,0.00,Acu-Link.com,2013-03-04 15:33:00,
2013-03-04 09:48:00,71.1,44.2,29.64,SW,225,6.3,-999.0,38,-99.99,,,0.00,Acu-Link.com,2013-03-04 15:48:00,
2013-03-04 10:04:00,72.7,44.2,29.64,SW,225,8.3,-999.0,36,-99.99,,,0.00,Acu-Link.com,2013-03-04 16:04:00,
2013-03-04 10:19:00,73.9,43.8,29.64,SSW,202,8.3,-999.0,34,-99.99,,,0.00,Acu-Link.com,2013-03-04 16:19:00,
2013-03-04 10:34:00,75.9,42.2,29.64,SW,225,8.3,-999.0,30,-99.99,,,0.00,Acu-Link.com,2013-03-04 16:34:00,
2013-03-04 10:49:00,77.7,42.0,29.63,WSW,247,11.4,-999.0,28,-99.99,,,0.00,Acu-Link.com,2013-03-04 16:49:00,
2013-03-04 11:04:00,78.6,40.8,29.63,SSW,202,6.8,-999.0,26,-99.99,,,0.00,Acu-Link.com,2013-03-04 17:04:00,
2013-03-04 11:19:00,81.1,38.6,29.62,SSW,202,9.9,-999.0,22,-99.99,,,0.00,Acu-Link.com,2013-03-04 17:19:00,
2013-03-04 11:34:00,79.5,38.4,29.62,SSW,202,13.0,-999.0,23,-99.99,,,0.00,Acu-Link.com,2013-03-04 17:34:00,
2013-03-04 11:49:00,81.5,36.5,29.61,SW,225,7.8,-999.0,20,-99.99,,,0.00,Acu-Link.com,2013-03-04 17:49:00,
2013-03-04 12:05:00,81.1,36.2,29.60,South,180,13.0,-999.0,20,-99.99,,,0.00,Acu-Link.com,2013-03-04 18:05:00,
2013-03-04 12:20:00,82.6,30.3,29.60,SW,225,7.8,-999.0,15,-99.99,,,0.00,Acu-Link.com,2013-03-04 18:20:00,
2013-03-04 12:35:00,82.9,32.1,29.59,SW,225,8.9,-999.0,16,-99.99,,,0.00,Acu-Link.com,2013-03-04 18:35:00,
2013-03-04 12:50:00,82.2,35.8,29.59,South,180,6.8,-999.0,19,-99.99,,,0.00,Acu-Link.com,2013-03-04 18:50:00,
2013-03-04 13:05:00,83.1,35.2,29.58,South,180,8.9,-999.0,18,-99.99,,,0.00,Acu-Link.com,2013-03-04 19:05:00,
2013-03-04 13:20:00,82.2,35.8,29.57,South,180,8.9,-999.0,19,-99.99,,,0.00,Acu-Link.com,2013-03-04 19:20:00,
2013-03-04 13:35:00,82.4,34.6,29.56,SSW,202,15.0,-999.0,18,-99.99,,,0.00,Acu-Link.com,2013-03-04 19:35:00,
2013-03-04 13:50:00,81.1,34.9,29.55,SSW,202,9.9,-999.0,19,-99.99,,,0.00,Acu-Link.com,2013-03-04 19:50:00,
2013-03-04 14:05:00,82.0,35.7,29.55,SSW,202,7.3,-999.0,19,-99.99,,,0.00,Acu-Link.com,2013-03-04 20:05:00,
2013-03-04 14:21:00,82.2,34.5,29.54,SW,225,9.9,-999.0,18,-99.99,,,0.00,Acu-Link.com,2013-03-04 20:21:00,
2013-03-04 14:36:00,82.6,36.1,29.54,South,180,6.3,-999.0,19,-99.99,,,0.00,Acu-Link.com,2013-03-04 20:36:00,
2013-03-04 14:51:00,82.4,33.2,29.53,South,180,6.8,-999.0,17,-99.99,,,0.00,Acu-Link.com,2013-03-04 20:51:00,
2013-03-04 15:06:00,82.8,33.5,29.53,SSW,202,8.9,-999.0,17,-99.99,,,0.00,Acu-Link.com,2013-03-04 21:06:00,
2013-03-04 15:21:00,83.3,33.9,29.53,SSW,202,9.4,-999.0,17,-99.99,,,0.00,Acu-Link.com,2013-03-04 21:21:00,
2013-03-04 15:36:00,81.9,34.2,29.52,SSW,202,4.7,-999.0,18,-99.99,,,0.00,Acu-Link.com,2013-03-04 21:36:00,
2013-03-04 15:51:00,84.7,30.2,29.52,South,180,8.3,-999.0,14,-99.99,,,0.00,Acu-Link.com,2013-03-04 21:51:00,
2013-03-04 16:06:00,83.8,31.2,29.52,SSW,202,5.8,-999.0,15,-99.99,,,0.00,Acu-Link.com,2013-03-04 22:06:00,
2013-03-04 16:21:00,83.8,34.3,29.51,SSE,157,8.3,-999.0,17,-99.99,,,0.00,Acu-Link.com,2013-03-04 22:21:00,
2013-03-04 16:37:00,84.7,35.0,29.51,SW,225,6.8,-999.0,17,-99.99,,,0.00,Acu-Link.com,2013-03-04 22:37:00,
2013-03-04 16:52:00,83.8,35.8,29.51,South,180,8.9,-999.0,18,-99.99,,,0.00,Acu-Link.com,2013-03-04 22:52:00,
2013-03-04 17:07:00,82.9,37.7,29.50,SSW,202,5.3,-999.0,20,-99.99,,,0.00,Acu-Link.com,2013-03-04 23:07:00,
2013-03-04 17:22:00,81.3,35.1,29.50,SSW,202,8.3,-999.0,19,-99.99,,,0.00,Acu-Link.com,2013-03-04 23:22:00,
2013-03-04 17:37:00,82.8,36.3,29.51,SSW,202,2.7,-999.0,19,-99.99,,,0.00,Acu-Link.com,2013-03-04 23:37:00,
2013-03-04 17:52:00,81.3,37.6,29.51,South,180,4.2,-999.0,21,-99.99,,,0.00,Acu-Link.com,2013-03-04 23:52:00,
2013-03-04 18:07:00,78.3,39.6,29.50,South,180,3.2,-999.0,25,-99.99,,,0.00,Acu-Link.com,2013-03-05 00:07:00,
2013-03-04 18:22:00,76.6,40.1,29.51,South,180,2.7,-999.0,27,-99.99,,,0.00,Acu-Link.com,2013-03-05 00:22:00,
2013-03-04 18:37:00,73.8,39.5,29.51,South,180,1.1,-999.0,29,-99.99,,,0.00,Acu-Link.com,2013-03-05 00:37:00,
2013-03-04 18:53:00,72.3,41.6,29.51,South,180,2.7,-999.0,33,-99.99,,,0.00,Acu-Link.com,2013-03-05 00:53:00,
2013-03-04 19:08:00,70.9,42.6,29.51,South,180,2.2,-999.0,36,-99.99,,,0.00,Acu-Link.com,2013-03-05 01:08:00,
2013-03-04 19:23:00,69.6,43.5,29.51,South,180,2.2,-999.0,39,-99.99,,,0.00,Acu-Link.com,2013-03-05 01:23:00,
2013-03-04 19:38:00,71.2,43.6,29.52,South,180,4.2,-999.0,37,-99.99,,,0.00,Acu-Link.com,2013-03-05 01:38:00,
2013-03-04 19:53:00,70.5,43.7,29.52,South,180,4.2,-999.0,38,-99.99,,,0.00,Acu-Link.com,2013-03-05 01:53:00,
2013-03-04 20:08:00,68.9,43.6,29.53,South,180,2.7,-999.0,40,-99.99,,,0.00,Acu-Link.com,2013-03-05 02:08:00,
2013-03-04 20:23:00,67.3,43.4,29.54,South,180,3.2,-999.0,42,-99.99,,,0.00,Acu-Link.com,2013-03-05 02:23:00,
2013-03-04 20:38:00,67.6,43.7,29.54,South,180,4.7,-999.0,42,-99.99,,,0.00,Acu-Link.com,2013-03-05 02:38:00,
2013-03-04 20:53:00,67.5,43.0,29.54,South,180,2.7,-999.0,41,-99.99,,,0.00,Acu-Link.com,2013-03-05 02:53:00,
2013-03-04 21:09:00,65.7,42.6,29.54,SSW,202,1.7,-999.0,43,-99.99,,,0.00,Acu-Link.com,2013-03-05 03:09:00,
2013-03-04 21:24:00,63.5,42.3,29.55,SSW,202,2.7,-999.0,46,-99.99,,,0.00,Acu-Link.com,2013-03-05 03:24:00,
2013-03-04 21:39:00,62.4,42.4,29.55,South,180,2.2,-999.0,48,-99.99,,,0.00,Acu-Link.com,2013-03-05 03:39:00,
2013-03-04 21:54:00,61.0,42.2,29.55,South,180,1.7,-999.0,50,-99.99,,,0.00,Acu-Link.com,2013-03-05 03:54:00,
2013-03-04 22:09:00,61.3,42.0,29.55,South,180,0.0,-999.0,49,-99.99,,,0.00,Acu-Link.com,2013-03-05 04:09:00,
2013-03-04 22:24:00,60.8,42.0,29.55,South,180,1.7,-999.0,50,-99.99,,,0.00,Acu-Link.com,2013-03-05 04:24:00,
2013-03-04 22:40:00,61.3,42.5,29.55,South,180,2.2,-999.0,50,-99.99,,,0.00,Acu-Link.com,2013-03-05 04:40:00,
2013-03-04 22:55:00,61.0,43.2,29.55,SSE,157,3.2,-999.0,52,-99.99,,,0.00,Acu-Link.com,2013-03-05 04:55:00,
2013-03-04 23:10:00,63.3,44.3,29.55,South,180,6.3,-999.0,50,-99.99,,,0.00,Acu-Link.com,2013-03-05 05:10:00,
2013-03-04 23:25:00,63.0,44.1,29.56,South,180,3.7,-999.0,50,-99.99,,,0.00,Acu-Link.com,2013-03-05 05:25:00,
2013-03-04 23:40:00,61.2,42.9,29.56,SSE,157,0.0,-999.0,51,-99.99,,,0.00,Acu-Link.com,2013-03-05 05:40:00,
2013-03-04 23:55:00,60.6,43.4,29.56,SSE,157,2.2,-999.0,53,-99.99,,,0.00,Acu-Link.com,2013-03-05 05:55:00,